Map

Track Data

SID SEASON NUMBER BASIN SUBBASIN NAME ISO_TIME NATURE LAT LON WMO_WIND WMO_PRES WMO_AGENCY TRACK_TYPE DIST2LAND LANDFALL IFLAG USA_AGENCY USA_ATCF_ID USA_LAT USA_LON USA_RECORD USA_STATUS USA_WIND USA_PRES USA_SSHS USA_R34_NE USA_R34_SE USA_R34_SW USA_R34_NW USA_R50_NE USA_R50_SE USA_R50_SW USA_R50_NW USA_R64_NE USA_R64_SE USA_R64_SW USA_R64_NW USA_POCI USA_ROCI USA_RMW USA_EYE TOKYO_LAT TOKYO_LON TOKYO_GRADE TOKYO_WIND TOKYO_PRES TOKYO_R50_DIR TOKYO_R50_LONG TOKYO_R50_SHORT TOKYO_R30_DIR TOKYO_R30_LONG TOKYO_R30_SHORT TOKYO_LAND CMA_LAT CMA_LON CMA_CAT CMA_WIND CMA_PRES HKO_LAT HKO_LON HKO_CAT HKO_WIND HKO_PRES NEWDELHI_LAT NEWDELHI_LON NEWDELHI_GRADE NEWDELHI_WIND NEWDELHI_PRES NEWDELHI_CI NEWDELHI_DP NEWDELHI_POCI REUNION_LAT REUNION_LON REUNION_TYPE REUNION_WIND REUNION_PRES REUNION_TNUM REUNION_CI REUNION_RMW REUNION_R34_NE REUNION_R34_SE REUNION_R34_SW REUNION_R34_NW REUNION_R50_NE REUNION_R50_SE REUNION_R50_SW REUNION_R50_NW REUNION_R64_NE REUNION_R64_SE REUNION_R64_SW REUNION_R64_NW BOM_LAT BOM_LON BOM_TYPE BOM_WIND BOM_PRES BOM_TNUM BOM_CI BOM_RMW BOM_R34_NE BOM_R34_SE BOM_R34_SW BOM_R34_NW BOM_R50_NE BOM_R50_SE BOM_R50_SW BOM_R50_NW BOM_R64_NE BOM_R64_SE BOM_R64_SW BOM_R64_NW BOM_ROCI BOM_POCI BOM_EYE BOM_POS_METHOD BOM_PRES_METHOD NADI_LAT NADI_LON NADI_CAT NADI_WIND NADI_PRES WELLINGTON_LAT WELLINGTON_LON WELLINGTON_WIND WELLINGTON_PRES DS824_LAT DS824_LON DS824_STAGE DS824_WIND DS824_PRES TD9636_LAT TD9636_LON TD9636_STAGE TD9636_WIND TD9636_PRES TD9635_LAT TD9635_LON TD9635_WIND TD9635_PRES TD9635_ROCI NEUMANN_LAT NEUMANN_LON NEUMANN_CLASS NEUMANN_WIND NEUMANN_PRES MLC_LAT MLC_LON MLC_CLASS MLC_WIND MLC_PRES USA_GUST BOM_GUST BOM_GUST_PER REUNION_GUST REUNION_GUST_PER USA_SEAHGT USA_SEARAD_NE USA_SEARAD_SE USA_SEARAD_SW USA_SEARAD_NW STORM_SPEED STORM_DIR
1946234N18130 1946 46 WP MM MAGGIE 1946-08-22 00:00:00 TS 17.9000 129.900 main 739 737 O________OOO__ jtwc_wp WP091946 17.9000 129.900 35 0 17.9000 129.900 TC 35 17.9000 129.900 2 35 17.9000 129.900 35 995 240 6 331
1946234N18130 1946 46 WP MM MAGGIE 1946-08-22 03:00:00 TS 18.1521 129.755 main 751 743 P________PPP__ WP091946 18.1375 129.743 37 0 18.1375 129.743 TC 37 18.1956 129.793 2 36 18.1375 129.743 37 994 270 6 333
1946234N18130 1946 46 WP MM MAGGIE 1946-08-22 06:00:00 TS 18.4207 129.620 main 749 749 O________OPO__ jtwc_wp WP091946 18.4000 129.600 40 0 18.4000 129.600 TC 40 18.4830 129.679 2 37 18.4000 129.600 40 993 300 6 337
1946234N18130 1946 46 WP MM MAGGIE 1946-08-22 09:00:00 TS 18.7135 129.501 main 759 750 P________PPP__ WP091946 18.7000 129.485 40 0 18.7000 129.485 TC 40 18.7539 129.550 2 38 18.7000 129.485 40 992 300 6 340
1946234N18130 1946 46 WP MM MAGGIE 1946-08-22 12:00:00 TS 19.0000 129.400 main 750 741 O________OOO__ jtwc_wp WP091946 19.0000 129.400 40 0 19.0000 129.400 TC 40 19.0000 129.400 2 40 19.0000 129.400 40 991 300 6 341
1946234N18130 1946 46 WP MM MAGGIE 1946-08-22 15:00:00 TS 19.2481 129.310 main 742 742 P________PPP__ WP091946 19.2575 129.335 40 0 19.2575 129.335 TC 40 19.2198 129.234 2 41 19.2575 129.335 40 990 330 5 344
1946234N18130 1946 46 WP MM MAGGIE 1946-08-22 18:00:00 TS 19.4846 129.253 main 746 735 O________OPO__ jtwc_wp WP091946 19.5000 129.300 40 0 19.5000 129.300 TC 40 19.4384 129.113 2 42 19.5000 129.300 40 990 360 5 345
1946234N18130 1946 46 WP MM MAGGIE 1946-08-22 21:00:00 TS 19.6893 129.186 main 739 739 P________PPP__ WP091946 19.6897 129.211 42 0 19.6897 129.211 TC 42 19.6878 129.110 2 43 19.6897 129.211 42 989 360 5 5
1946234N18130 1946 46 WP MM MAGGIE 1946-08-23 00:00:00 TS 20.0000 129.300 main 756 756 O________OOO__ jtwc_wp WP091946 20.0000 129.300 45 0 20.0000 129.300 TC 45 20.0000 129.300 2 45 20.0000 129.300 45 988 360 10 30
1946234N18130 1946 46 WP MM MAGGIE 1946-08-23 03:00:00 TS 20.5928 129.736 main 813 813 P________PPP__ WP091946 20.6424 129.729 45 0 20.6424 129.729 TC 45 20.4439 129.759 2 46 20.6424 129.729 45 987 360 16 40
1946234N18130 1946 46 WP MM MAGGIE 1946-08-23 06:00:00 TS 21.2110 130.403 main 903 903 O________OPO__ jtwc_wp WP091946 21.3000 130.400 45 0 21.3000 130.400 TC 45 20.9440 130.414 2 47 21.3000 130.400 45 986 360 17 53
1946234N18130 1946 46 WP MM MAGGIE 1946-08-23 09:00:00 TS 21.5956 131.175 main 996 996 P________PPP__ WP091946 21.6452 131.171 47 0 21.6452 131.171 TC 47 21.4469 131.187 2 48 21.6452 131.171 47 985 330 16 65
1946234N18130 1946 46 WP MM MAGGIE 1946-08-23 12:00:00 TS 21.9000 132.000 main 1024 998 O________OOO__ jtwc_wp WP091946 21.9000 132.000 50 0 21.9000 132.000 TC 50 21.9000 132.000 2 50 21.9000 132.000 50 984 300 16 66
1946234N18130 1946 46 WP MM MAGGIE 1946-08-23 15:00:00 TS 22.2584 132.752 main 993 978 P________PPP__ WP091946 22.2645 132.757 50 0 22.2645 132.757 TC 50 22.2401 132.734 2 51 22.2645 132.757 50 983 270 15 64
1946234N18130 1946 46 WP MM MAGGIE 1946-08-23 18:00:00 TS 22.5811 133.497 main 978 972 O________OPO__ jtwc_wp WP091946 22.6000 133.500 50 0 22.6000 133.500 TC 50 22.5243 133.487 2 52 22.6000 133.500 50 983 240 15 68
1946234N18130 1946 46 WP MM MAGGIE 1946-08-23 21:00:00 TS 22.8095 134.255 main 982 975 P________PPP__ WP091946 22.8222 134.258 52 0 22.8222 134.258 TC 52 22.7713 134.246 2 53 22.8222 134.258 52 982 240 14 73
1946234N18130 1946 46 WP MM MAGGIE 1946-08-24 00:00:00 TS 23.0000 135.000 main 989 987 O________OOO__ jtwc_wp WP091946 23.0000 135.000 55 0 23.0000 135.000 TC 55 23.0000 135.000 2 55 23.0000 135.000 55 982 240 14 74
1946234N18130 1946 46 WP MM MAGGIE 1946-08-24 03:00:00 TS 23.2026 135.711 main 1001 1001 P________PPP__ WP091946 23.1920 135.700 55 0 23.1920 135.700 TC 55 23.2344 135.741 2 56 23.1920 135.700 55 981 270 14 72
1946234N18130 1946 46 WP MM MAGGIE 1946-08-24 06:00:00 TS 23.4141 136.419 main 1018 1014 O________OPO__ jtwc_wp WP091946 23.4000 136.400 55 0 23.4000 136.400 TC 55 23.4563 136.474 2 57 23.4000 136.400 55 981 300 14 71
1946234N18130 1946 46 WP MM MAGGIE 1946-08-24 09:00:00 TS 23.6505 137.156 main 1031 1031 P________PPP__ WP091946 23.6422 137.143 57 0 23.6422 137.143 TC 57 23.6751 137.195 2 58 23.6422 137.143 57 980 270 14 70
1946234N18130 1946 46 WP MM MAGGIE 1946-08-24 12:00:00 TS 23.9000 137.900 main 1053 1053 O________OOO__ jtwc_wp WP091946 23.9000 137.900 60 0 23.9000 137.900 TC 60 23.9000 137.900 2 60 23.9000 137.900 60 980 240 15 70
1946234N18130 1946 46 WP MM MAGGIE 1946-08-24 15:00:00 TS 24.1408 138.655 main 1075 1060 P________PPP__ WP091946 24.1499 138.673 60 0 24.1499 138.673 TC 60 24.1135 138.603 2 60 24.1499 138.673 60 980 240 14 70
1946234N18130 1946 46 WP MM MAGGIE 1946-08-24 18:00:00 TS 24.3848 139.372 main 1063 1056 O________OPO__ jtwc_wp WP091946 24.4000 139.400 60 0 24.4000 139.400 TC 60 24.3390 139.290 2 60 24.4000 139.400 60 980 240 13 69
1946234N18130 1946 46 WP MM MAGGIE 1946-08-24 21:00:00 TS 24.6189 140.001 main 1063 1052 P________PPP__ WP091946 24.6269 140.016 60 0 24.6269 140.016 TC 60 24.5950 139.956 2 60 24.6269 140.016 60 980 270 12 65
1946234N18130 1946 46 WP MM MAGGIE 1946-08-25 00:00:00 TS 24.9000 140.600 main 1056 1048 O________OOO__ jtwc_wp WP091946 24.9000 140.600 60 0 24.9000 140.600 TC 60 24.9000 140.600 2 60 24.9000 140.600 60 980 300 13 61
1946234N18130 1946 46 WP MM MAGGIE 1946-08-25 03:00:00 TS 25.2641 141.261 main 1048 1036 P________PPP__ WP091946 25.2700 141.257 60 0 25.2700 141.257 TC 60 25.2463 141.270 2 58 25.2700 141.257 60 981 330 14 56
1946234N18130 1946 46 WP MM MAGGIE 1946-08-25 06:00:00 TS 25.6863 141.903 main 1036 1009 O________OPO__ jtwc_wp WP091946 25.7000 141.900 60 0 25.7000 141.900 TC 60 25.6453 141.912 2 57 25.7000 141.900 60 982 360 14 52
1946234N18130 1946 46 WP MM MAGGIE 1946-08-25 09:00:00 TS 26.1197 142.490 main 1012 971 P________PPP__ WP091946 26.1273 142.488 57 0 26.1273 142.488 TC 57 26.0966 142.498 2 56 26.1273 142.488 57 982 390 13 47
1946234N18130 1946 46 WP MM MAGGIE 1946-08-25 12:00:00 TS 26.6000 143.000 main 971 931 O________OOO__ jtwc_wp WP091946 26.6000 143.000 55 0 26.6000 143.000 TC 55 26.6000 143.000 2 55 26.6000 143.000 55 983 420 13 40
1946234N18130 1946 46 WP MM MAGGIE 1946-08-25 15:00:00 TS 27.1311 143.447 main 931 884 P________PPP__ WP091946 27.1199 143.453 55 0 27.1199 143.453 TC 55 27.1649 143.431 2 53 27.1199 143.453 55 983 450 13 32
1946234N18130 1946 46 WP MM MAGGIE 1946-08-25 18:00:00 TS 27.7191 143.793 main 884 831 O________OPO__ jtwc_wp WP091946 27.7000 143.800 55 0 27.7000 143.800 TC 55 27.7763 143.772 2 52 27.7000 143.800 55 984 480 14 23
1946234N18130 1946 46 WP MM MAGGIE 1946-08-25 21:00:00 TS 28.3679 144.046 main 821 772 P________PPP__ WP091946 28.3574 144.053 52 0 28.3574 144.053 TC 52 28.3997 144.027 2 51 28.3574 144.053 52 984 450 13 16
1946234N18130 1946 46 WP MM MAGGIE 1946-08-26 00:00:00 TS 29.0000 144.200 main 772 730 O________OOO__ jtwc_wp WP091946 29.0000 144.200 50 0 29.0000 144.200 TC 50 29.0000 144.200 2 50 29.0000 144.200 50 985 420 12 11
1946234N18130 1946 46 WP MM MAGGIE 1946-08-26 03:00:00 TS 29.5239 144.289 main 730 684 P________PPP__ WP091946 29.5224 144.280 50 0 29.5224 144.280 TC 50 29.5283 144.314 2 48 29.5224 144.280 50 986 420 10 5
1946234N18130 1946 46 WP MM MAGGIE 1946-08-26 06:00:00 TS 30.0074 144.312 main 684 637 O________OPO__ jtwc_wp WP091946 30.0000 144.300 50 0 30.0000 144.300 TC 50 30.0294 144.350 2 47 30.0000 144.300 50 987 420 10 1
1946234N18130 1946 46 WP MM MAGGIE 1946-08-26 09:00:00 TS 30.5040 144.320 main 637 592 P________PPP__ WP091946 30.5000 144.315 47 0 30.5000 144.315 TC 47 30.5159 144.335 2 46 30.5000 144.315 47 987 390 10 0
1946234N18130 1946 46 WP MM MAGGIE 1946-08-26 12:00:00 TS 31.0000 144.300 main 592 548 O________OOO__ jtwc_wp WP091946 31.0000 144.300 45 0 31.0000 144.300 TC 45 31.0000 144.300 2 45 31.0000 144.300 45 988 360 10 357
1946234N18130 1946 46 WP MM MAGGIE 1946-08-26 15:00:00 TS 31.4979 144.255 main 548 500 P________PPP__ WP091946 31.5000 144.250 42 0 31.5000 144.250 TC 42 31.4914 144.268 2 42 31.5000 144.250 42 989 330 10 355
1946234N18130 1946 46 WP MM MAGGIE 1946-08-26 18:00:00 TS 31.9976 144.210 main 500 461 O________OPO__ jtwc_wp WP091946 32.0000 144.200 40 0 32.0000 144.200 TC 40 31.9902 144.242 2 40 32.0000 144.200 40 990 300 10 356
1946234N18130 1946 46 WP MM MAGGIE 1946-08-26 21:00:00 TS 32.4985 144.195 main 461 426 P________PPP__ WP091946 32.5000 144.187 37 0 32.5000 144.187 TC 37 32.4939 144.220 2 37 32.5000 144.187 37 991 270 10 360
1946234N18130 1946 46 WP MM MAGGIE 1946-08-27 00:00:00 TS 33.0000 144.200 main 426 O________OOO__ jtwc_wp WP091946 33.0000 144.200 35 0 33.0000 144.200 TC 35 33.0000 144.200 2 35 33.0000 144.200 35 992 240 10 3

Digital Typhoon Data and Search

About IBTrACS Database

This database is a web-friendly format of International Best Track Archive for Climate Stewardship (IBTrACS), a global best track data archive curated by NOAA dating back to 1842.

Updated: 2021-12-03